Time;durP1;ratioP1;P1;durP2;ratioP2;P2;SDS_P1;SDS_P2;PMS_P1;PMS_P2;Temp;Humidity;BMP_temperature;BMP_pressure;BME280_temperature;BME280_humidity;BME280_pressure;Samples;Min_cycle;Max_cycle;Signal;HPM_P1;HPM_P2
2023/08/04 00:00:55;;;;;;;1.30;1.20;;;16.20;99.90;;;;;;5072156;28;20191;-83
2023/08/04 00:03:20;;;;;;;2.37;1.30;;;16.70;99.90;;;;;;5100162;28;20194;-83
2023/08/04 00:05:46;;;;;;;3.00;1.40;;;16.30;99.90;;;;;;5076595;28;20192;-83
2023/08/04 00:08:11;;;;;;;1.70;1.07;;;16.10;99.90;;;;;;5076516;28;20183;-83
2023/08/04 00:10:37;;;;;;;1.20;1.10;;;16.20;99.90;;;;;;5081797;28;20184;-83
2023/08/04 00:13:03;;;;;;;1.37;1.03;;;16.50;99.90;;;;;;5076799;28;20192;-83
2023/08/04 00:15:29;;;;;;;2.13;1.37;;;15.70;99.90;;;;;;5081784;28;20219;-83
2023/08/04 00:17:55;;;;;;;1.73;1.30;;;16.50;99.90;;;;;;5075725;28;20454;-84
2023/08/04 00:20:21;;;;;;;1.60;1.27;;;16.50;99.90;;;;;;5071505;28;20249;-83
2023/08/04 00:22:46;;;;;;;1.30;1.20;;;16.10;99.90;;;;;;5073810;28;20676;-82
2023/08/04 00:25:12;;;;;;;1.40;1.13;;;16.50;99.90;;;;;;5079526;28;20187;-83
2023/08/04 00:27:38;;;;;;;1.23;1.00;;;16.50;99.90;;;;;;5074120;28;20227;-83
2023/08/04 00:30:04;;;;;;;1.20;1.10;;;16.00;99.90;;;;;;5076808;28;20239;-84
2023/08/04 00:32:29;;;;;;;1.30;1.20;;;15.90;99.90;;;;;;5070986;28;20191;-84
2023/08/04 00:34:55;;;;;;;1.37;0.83;;;15.90;99.90;;;;;;5078175;28;20465;-84
2023/08/04 00:37:20;;;;;;;1.83;1.10;;;16.00;99.90;;;;;;5078284;28;21146;-84
2023/08/04 00:39:46;;;;;;;4.00;1.60;;;15.70;99.90;;;;;;5076436;28;20624;-84
2023/08/04 00:42:11;;;;;;;1.67;1.37;;;15.40;99.90;;;;;;5074400;28;20282;-84
2023/08/04 00:44:37;;;;;;;1.70;1.23;;;15.90;99.90;;;;;;5073030;28;20206;-84
2023/08/04 00:47:04;;;;;;;1.30;1.13;;;15.70;99.90;;;;;;5082506;28;20213;-84
2023/08/04 00:49:29;;;;;;;2.33;1.40;;;15.80;99.90;;;;;;5076403;28;20588;-84
2023/08/04 00:51:55;;;;;;;3.00;1.10;;;16.00;99.90;;;;;;5066720;28;20196;-84
2023/08/04 00:54:22;;;;;;;1.63;1.13;;;15.30;99.90;;;;;;5080068;28;20478;-84
2023/08/04 00:56:49;;;;;;;2.97;1.50;;;15.80;99.90;;;;;;5077096;28;20192;-84
2023/08/04 00:59:14;;;;;;;1.85;1.42;;;15.20;99.90;;;;;;5070743;28;20187;-84
2023/08/04 01:01:40;;;;;;;1.63;1.10;;;15.50;99.90;;;;;;5079036;28;20188;-84
2023/08/04 01:04:05;;;;;;;3.10;1.30;;;15.70;99.90;;;;;;5077729;28;20654;-84
2023/08/04 01:06:40;;;;;;;1.60;1.20;;;15.50;99.90;;;;;;5099850;28;20247;-84
2023/08/04 01:09:18;;;;;;;2.65;1.48;;;15.60;99.90;;;;;;5077331;28;20331;-84
2023/08/04 01:11:51;;;;;;;1.20;1.10;;;15.50;99.90;;;;;;5076452;28;20587;-84
2023/08/04 01:14:18;;;;;;;2.67;1.10;;;15.60;99.90;;;;;;5071535;28;20680;-84
2023/08/04 01:16:44;;;;;;;2.67;1.10;;;15.00;99.90;;;;;;5069620;28;20200;-84
2023/08/04 01:19:09;;;;;;;1.90;1.17;;;15.60;99.90;;;;;;5073569;28;20233;-84
2023/08/04 01:21:42;;;;;;;1.63;1.53;;;15.60;99.90;;;;;;5067525;28;20184;-83
2023/08/04 01:24:09;;;;;;;1.70;1.20;;;15.50;99.90;;;;;;5078238;28;20182;-84
2023/08/04 01:26:44;;;;;;;1.45;1.30;;;15.70;99.90;;;;;;5081179;28;20207;-84
2023/08/04 01:29:10;;;;;;;2.08;1.20;;;15.30;99.90;;;;;;5090064;28;21113;-84
2023/08/04 01:31:37;;;;;;;1.30;1.10;;;15.20;99.90;;;;;;5077773;28;20184;-84
2023/08/04 01:34:03;;;;;;;1.90;1.40;;;15.40;99.90;;;;;;5077500;28;20211;-84
2023/08/04 01:36:28;;;;;;;1.27;1.02;;;15.00;99.90;;;;;;5072899;28;20203;-82
2023/08/04 01:38:56;;;;;;;2.20;1.23;;;15.30;99.90;;;;;;5069013;28;20683;-84
2023/08/04 01:41:21;;;;;;;1.75;1.30;;;15.10;99.90;;;;;;5078971;28;20180;-83
2023/08/04 01:43:47;;;;;;;1.97;1.17;;;15.30;99.90;;;;;;5079165;28;20671;-83
2023/08/04 01:46:12;;;;;;;3.00;1.70;;;15.10;99.90;;;;;;5076175;28;20734;-83
2023/08/04 01:48:38;;;;;;;1.53;1.30;;;15.60;99.90;;;;;;5074629;28;20185;-83
2023/08/04 01:51:03;;;;;;;2.23;1.30;;;15.50;99.90;;;;;;5077283;28;20215;-83
2023/08/04 01:53:29;;;;;;;6.20;2.17;;;15.50;99.90;;;;;;5074195;28;20569;-84
2023/08/04 01:55:54;;;;;;;2.70;1.20;;;15.40;99.90;;;;;;5077080;28;20223;-83
2023/08/04 01:58:20;;;;;;;2.10;1.27;;;14.80;99.90;;;;;;5071636;28;20219;-84
2023/08/04 02:00:46;;;;;;;1.80;1.13;;;15.30;99.90;;;;;;5076012;28;20522;-84
2023/08/04 02:03:11;;;;;;;1.10;1.00;;;14.90;99.90;;;;;;5069264;28;20661;-84
2023/08/04 02:05:37;;;;;;;1.77;1.50;;;14.80;99.90;;;;;;5072707;28;20214;-84
2023/08/04 02:08:02;;;;;;;2.23;1.10;;;14.90;99.90;;;;;;5074856;28;20713;-83
2023/08/04 02:10:28;;;;;;;1.57;1.27;;;15.40;99.90;;;;;;5071293;28;20710;-83
2023/08/04 02:12:53;;;;;;;1.57;1.20;;;15.00;99.90;;;;;;5065911;28;20184;-84
2023/08/04 02:15:19;;;;;;;2.67;1.30;;;15.40;99.90;;;;;;5052584;28;20258;-83
2023/08/04 02:17:44;;;;;;;3.20;1.40;;;15.40;99.90;;;;;;5066718;28;20200;-83
2023/08/04 02:20:10;;;;;;;3.63;1.23;;;15.60;99.90;;;;;;5091079;28;20536;-83
2023/08/04 02:22:36;;;;;;;1.00;0.90;;;15.30;99.90;;;;;;5070974;28;20340;-83
2023/08/04 02:25:01;;;;;;;1.83;1.23;;;15.20;99.90;;;;;;5074985;28;20248;-84
2023/08/04 02:27:27;;;;;;;2.33;1.80;;;15.40;99.90;;;;;;5094995;28;20200;-84
2023/08/04 02:29:52;;;;;;;1.23;1.13;;;15.50;99.90;;;;;;5074969;28;20186;-84
2023/08/04 02:32:18;;;;;;;2.20;1.10;;;15.50;99.90;;;;;;5072491;28;20189;-83
2023/08/04 02:34:43;;;;;;;1.60;1.00;;;14.80;99.90;;;;;;5098813;28;20208;-83
2023/08/04 02:37:09;;;;;;;2.20;1.30;;;15.30;99.90;;;;;;5067504;28;20704;-84
2023/08/04 02:39:34;;;;;;;1.30;1.10;;;15.40;99.90;;;;;;5076988;28;20223;-83
2023/08/04 02:42:00;;;;;;;1.97;1.47;;;15.40;99.90;;;;;;5073672;28;20259;-83
2023/08/04 02:44:26;;;;;;;2.43;1.53;;;15.30;99.90;;;;;;5073166;28;20192;-83
2023/08/04 02:46:51;;;;;;;2.43;1.20;;;15.50;99.90;;;;;;5070861;28;20299;-84
2023/08/04 02:49:16;;;;;;;5.03;1.20;;;15.20;99.90;;;;;;5074111;28;20188;-83
2023/08/04 02:51:42;;;;;;;2.87;1.20;;;15.60;99.90;;;;;;5074001;28;20285;-84
2023/08/04 02:54:10;;;;;;;3.37;1.90;;;15.80;99.90;;;;;;5079896;28;20193;-84
2023/08/04 02:56:36;;;;;;;1.90;1.50;;;15.90;99.90;;;;;;5076348;28;20562;-84
2023/08/04 02:59:01;;;;;;;3.13;1.23;;;15.40;99.90;;;;;;5076726;28;20192;-84
2023/08/04 03:01:27;;;;;;;3.40;1.53;;;15.70;99.90;;;;;;5091490;28;20188;-84
2023/08/04 03:03:52;;;;;;;1.60;1.30;;;15.60;99.90;;;;;;5075651;28;20185;-84
2023/08/04 03:06:18;;;;;;;2.30;1.27;;;15.20;99.90;;;;;;5079258;28;20226;-84
2023/08/04 03:08:43;;;;;;;2.20;1.60;;;15.60;99.90;;;;;;5078915;28;20191;-84
2023/08/04 03:11:11;;;;;;;4.93;1.17;;;15.90;99.90;;;;;;5094955;28;20207;-84
2023/08/04 03:13:39;;;;;;;3.10;1.30;;;15.60;99.90;;;;;;5076706;28;20246;-84
2023/08/04 03:16:05;;;;;;;2.75;1.20;;;15.20;99.90;;;;;;5074772;28;20222;-84
2023/08/04 03:18:31;;;;;;;2.40;1.30;;;15.50;99.90;;;;;;5075556;28;20275;-83
2023/08/04 03:20:59;;;;;;;2.53;1.10;;;15.40;99.90;;;;;;5068638;28;20449;-84
2023/08/04 03:23:25;;;;;;;3.15;1.40;;;15.60;99.90;;;;;;5069563;28;20185;-84
2023/08/04 03:25:50;;;;;;;1.57;1.23;;;15.90;99.90;;;;;;5076575;28;20187;-84
2023/08/04 03:28:17;;;;;;;3.10;1.67;;;16.10;99.90;;;;;;5072499;28;20227;-84
2023/08/04 03:30:42;;;;;;;1.33;1.20;;;16.20;99.90;;;;;;5098349;28;20286;-84
2023/08/04 03:33:08;;;;;;;2.30;1.20;;;16.00;99.90;;;;;;5100916;28;20207;-84
2023/08/04 03:35:33;;;;;;;1.43;1.00;;;15.70;99.90;;;;;;5075336;28;20210;-84
2023/08/04 03:37:59;;;;;;;1.73;1.50;;;15.50;99.90;;;;;;5080193;28;20222;-84
2023/08/04 03:40:24;;;;;;;1.20;1.10;;;16.00;99.90;;;;;;5076313;28;20176;-84
2023/08/04 03:42:51;;;;;;;1.77;1.10;;;16.10;99.90;;;;;;5079575;28;20181;-84
2023/08/04 03:45:16;;;;;;;2.38;1.17;;;15.60;99.90;;;;;;5070594;28;20212;-84
2023/08/04 03:47:42;;;;;;;1.87;1.30;;;16.30;99.90;;;;;;5084467;28;20235;-84
2023/08/04 03:50:08;;;;;;;2.17;1.10;;;16.30;99.90;;;;;;5079099;28;20229;-84
2023/08/04 03:52:33;;;;;;;4.07;1.00;;;16.00;99.90;;;;;;5077617;28;20242;-84
2023/08/04 03:54:59;;;;;;;1.90;1.30;;;16.10;99.90;;;;;;5070164;28;20215;-84
2023/08/04 03:57:25;;;;;;;2.70;1.30;;;16.20;99.90;;;;;;5083106;28;20220;-84
2023/08/04 03:59:52;;;;;;;1.47;1.23;;;16.20;99.90;;;;;;5083430;28;20437;-84
2023/08/04 04:02:18;;;;;;;1.42;1.10;;;15.70;99.90;;;;;;5068908;28;20490;-84
2023/08/04 04:04:43;;;;;;;1.73;1.07;;;15.90;99.90;;;;;;5071018;28;20303;-84
2023/08/04 04:07:09;;;;;;;1.70;1.53;;;15.90;99.90;;;;;;5062909;28;21002;-84
2023/08/04 04:09:34;;;;;;;1.83;1.10;;;15.70;99.90;;;;;;5076649;28;20279;-84
2023/08/04 04:12:00;;;;;;;2.30;1.20;;;16.00;99.90;;;;;;5069906;28;20267;-83
2023/08/04 04:14:25;;;;;;;2.40;1.20;;;16.30;99.90;;;;;;5076685;28;20604;-82
2023/08/04 04:16:51;;;;;;;1.53;1.10;;;15.70;99.90;;;;;;5077767;28;20199;-83
2023/08/04 04:19:16;;;;;;;1.20;1.10;;;16.00;99.90;;;;;;5075379;28;20212;-84
2023/08/04 04:21:42;;;;;;;2.67;1.30;;;16.30;99.90;;;;;;5071698;28;20191;-84
2023/08/04 04:24:08;;;;;;;1.60;1.50;;;16.30;99.90;;;;;;5078219;28;20540;-84
2023/08/04 04:26:33;;;;;;;2.47;1.40;;;16.00;99.90;;;;;;5078153;28;20196;-84
2023/08/04 04:28:59;;;;;;;2.20;1.40;;;16.10;99.90;;;;;;5074361;28;20184;-84
2023/08/04 04:31:24;;;;;;;3.13;1.10;;;16.10;99.90;;;;;;5073891;28;20284;-84
2023/08/04 04:33:50;;;;;;;1.83;1.20;;;16.00;99.90;;;;;;5075502;28;20252;-83
2023/08/04 04:36:15;;;;;;;3.10;1.40;;;16.60;99.90;;;;;;5077341;28;20772;-84
2023/08/04 04:38:40;;;;;;;1.97;0.90;;;16.90;99.90;;;;;;5090738;28;20202;-84
2023/08/04 04:41:06;;;;;;;1.27;1.10;;;16.20;99.90;;;;;;5093194;28;20188;-83
2023/08/04 04:43:32;;;;;;;1.30;0.80;;;16.40;99.90;;;;;;5072271;28;20184;-84
2023/08/04 04:45:58;;;;;;;1.92;1.10;;;16.30;99.90;;;;;;5093006;28;20251;-83
2023/08/04 04:48:24;;;;;;;1.40;1.30;;;16.50;99.90;;;;;;5065579;28;20610;-83
2023/08/04 04:50:51;;;;;;;2.60;1.38;;;16.00;99.90;;;;;;5098251;28;20195;-82
2023/08/04 04:53:17;;;;;;;2.75;1.20;;;16.40;99.90;;;;;;5071332;28;20183;-84
2023/08/04 04:55:42;;;;;;;1.40;1.13;;;16.20;99.90;;;;;;5072282;28;20233;-82
2023/08/04 04:58:08;;;;;;;1.50;1.40;;;16.20;99.90;;;;;;5073564;28;20439;-83
2023/08/04 05:00:34;;;;;;;1.30;1.13;;;16.60;99.90;;;;;;5076957;28;20180;-84
2023/08/04 05:03:01;;;;;;;2.17;1.30;;;16.30;99.90;;;;;;5076546;28;20628;-83
2023/08/04 05:05:28;;;;;;;2.20;1.30;;;16.80;99.90;;;;;;5075756;28;20243;-83
2023/08/04 05:07:54;;;;;;;2.05;1.10;;;17.30;99.90;;;;;;5072234;28;20609;-83
2023/08/04 05:10:19;;;;;;;1.93;1.47;;;17.00;99.90;;;;;;5078793;28;20263;-83
2023/08/04 05:12:45;;;;;;;1.53;1.00;;;17.00;99.90;;;;;;5067503;28;20184;-82
2023/08/04 05:15:10;;;;;;;4.37;1.30;;;16.80;99.90;;;;;;5075542;28;20254;-82
2023/08/04 05:17:36;;;;;;;2.50;1.37;;;17.10;99.90;;;;;;5092498;28;20200;-82
2023/08/04 05:20:03;;;;;;;3.07;1.20;;;17.40;99.90;;;;;;5077210;28;20180;-83
2023/08/04 05:22:28;;;;;;;6.50;1.40;;;17.20;99.90;;;;;;5093164;28;20180;-83
2023/08/04 05:24:54;;;;;;;2.50;1.70;;;16.70;99.90;;;;;;5095693;28;20322;-83
2023/08/04 05:27:19;;;;;;;2.43;1.43;;;17.10;99.90;;;;;;5075895;28;20228;-83
2023/08/04 05:29:45;;;;;;;1.43;1.20;;;17.20;99.90;;;;;;5087744;28;20209;-82
2023/08/04 05:32:10;;;;;;;1.57;1.20;;;17.20;99.90;;;;;;5076469;28;20192;-82
2023/08/04 05:34:36;;;;;;;2.10;1.23;;;17.30;99.90;;;;;;5074504;28;20303;-82
2023/08/04 05:37:01;;;;;;;3.07;1.60;;;17.40;99.90;;;;;;5090976;28;20283;-82
2023/08/04 05:39:27;;;;;;;2.40;1.30;;;17.70;99.90;;;;;;5096133;28;20199;-83
2023/08/04 05:41:52;;;;;;;3.80;2.50;;;18.30;99.90;;;;;;5075275;28;20199;-82
2023/08/04 05:44:18;;;;;;;3.20;2.77;;;18.20;99.90;;;;;;5090526;28;20236;-81
2023/08/04 05:46:44;;;;;;;2.20;1.40;;;18.50;99.90;;;;;;5075347;28;20287;-81
2023/08/04 05:49:09;;;;;;;108.80;86.67;;;19.10;99.90;;;;;;5072861;28;20707;-83
2023/08/04 05:51:35;;;;;;;12.53;10.10;;;19.30;99.90;;;;;;5067562;28;20445;-87
2023/08/04 05:54:00;;;;;;;3.63;1.17;;;19.30;99.90;;;;;;5078243;28;20467;-85
2023/08/04 05:56:26;;;;;;;1.20;1.10;;;19.40;99.90;;;;;;5081186;28;20296;-82
2023/08/04 05:58:51;;;;;;;1.50;1.40;;;19.40;99.90;;;;;;5077164;28;20648;-82
2023/08/04 06:01:17;;;;;;;1.77;1.10;;;19.00;99.90;;;;;;5073380;28;20191;-83
2023/08/04 06:03:43;;;;;;;1.27;1.17;;;19.00;99.90;;;;;;5080989;28;20205;-83
2023/08/04 06:06:09;;;;;;;1.13;1.02;;;18.90;99.90;;;;;;5085135;28;20221;-84
2023/08/04 06:08:34;;;;;;;1.70;1.27;;;19.10;99.90;;;;;;5078741;28;20662;-82
2023/08/04 06:11:00;;;;;;;3.57;1.37;;;19.20;99.90;;;;;;5075402;28;20177;-82
2023/08/04 06:13:26;;;;;;;1.63;1.10;;;19.00;99.90;;;;;;5081210;28;20267;-82
2023/08/04 06:15:51;;;;;;;1.80;1.10;;;19.30;99.90;;;;;;5080610;28;20204;-82
2023/08/04 06:18:17;;;;;;;1.97;1.20;;;19.40;99.90;;;;;;5077574;28;20253;-82
2023/08/04 06:20:43;;;;;;;1.37;1.27;;;19.50;99.90;;;;;;5101673;28;20208;-82
2023/08/04 06:23:08;;;;;;;1.77;1.40;;;19.70;99.90;;;;;;5078320;28;20793;-83
2023/08/04 06:25:34;;;;;;;1.30;1.17;;;20.20;99.90;;;;;;5077987;28;20189;-83
2023/08/04 06:27:59;;;;;;;2.83;2.50;;;20.20;99.90;;;;;;5092805;28;20211;-83
2023/08/04 06:30:25;;;;;;;4.03;1.80;;;20.00;99.90;;;;;;5095734;28;20187;-83
2023/08/04 06:32:51;;;;;;;2.30;1.43;;;20.20;99.90;;;;;;5079084;28;20537;-83
2023/08/04 06:35:16;;;;;;;1.50;1.40;;;20.00;99.90;;;;;;5071597;28;20215;-83
2023/08/04 06:37:42;;;;;;;2.20;0.97;;;20.40;99.90;;;;;;5070994;28;21042;-84
2023/08/04 06:40:08;;;;;;;1.30;1.13;;;20.60;99.90;;;;;;5096782;28;20185;-83
2023/08/04 06:42:34;;;;;;;1.65;1.00;;;20.00;99.90;;;;;;5076334;28;20777;-82
2023/08/04 06:45:01;;;;;;;4.60;1.10;;;20.60;99.90;;;;;;5074628;28;20201;-83
2023/08/04 06:47:27;;;;;;;1.95;1.33;;;20.50;99.00;;;;;;5080081;28;20482;-82
2023/08/04 06:49:52;;;;;;;1.07;0.97;;;20.50;98.90;;;;;;5074621;28;20172;-82
2023/08/04 06:52:18;;;;;;;1.43;0.80;;;20.70;98.50;;;;;;5070720;28;20231;-83
2023/08/04 06:54:44;;;;;;;3.20;1.10;;;21.20;97.80;;;;;;5070975;28;20204;-83
2023/08/04 06:57:09;;;;;;;1.83;1.20;;;21.50;97.80;;;;;;5073490;28;20458;-82
2023/08/04 06:59:35;;;;;;;2.00;1.23;;;21.30;97.40;;;;;;5089987;28;20354;-88
2023/08/04 07:02:01;;;;;;;1.50;0.90;;;21.70;97.00;;;;;;5076835;28;20210;-88
2023/08/04 07:04:27;;;;;;;4.32;0.95;;;21.60;96.30;;;;;;5076887;28;20176;-87
2023/08/04 07:06:54;;;;;;;4.10;1.50;;;21.90;96.60;;;;;;5077880;28;20208;-87
2023/08/04 07:09:20;;;;;;;3.37;1.67;;;21.90;96.80;;;;;;5070316;28;20438;-87
2023/08/04 07:11:45;;;;;;;2.10;1.60;;;22.60;95.80;;;;;;5071043;28;20448;-87
2023/08/04 07:14:11;;;;;;;2.37;1.80;;;22.70;94.90;;;;;;5071032;28;20196;-87
2023/08/04 07:16:36;;;;;;;3.10;1.77;;;23.90;94.20;;;;;;5071807;28;20263;-87
2023/08/04 07:19:32;;;;;;;3.30;1.47;;;26.00;90.90;;;;;;5075375;28;20177;-92
2023/08/04 07:21:57;;;;;;;2.93;1.70;;;27.00;83.90;;;;;;5073850;22;20245;-69
2023/08/04 07:24:23;;;;;;;2.83;1.43;;;27.60;79.90;;;;;;5060437;28;20469;-68
2023/08/04 07:26:48;;;;;;;1.30;1.13;;;28.80;77.60;;;;;;5051772;28;20191;-70
2023/08/04 07:29:14;;;;;;;1.53;1.30;;;29.40;71.20;;;;;;5066056;28;20185;-69
2023/08/04 07:31:40;;;;;;;2.37;1.80;;;30.00;69.70;;;;;;5069863;28;20189;-68
2023/08/04 07:34:05;;;;;;;2.87;1.50;;;29.50;66.80;;;;;;5069461;28;20268;-68
2023/08/04 07:36:31;;;;;;;1.83;1.20;;;29.20;67.80;;;;;;5063148;28;20189;-69
2023/08/04 07:38:56;;;;;;;1.83;1.50;;;28.40;69.30;;;;;;5065838;28;20224;-68
2023/08/04 07:41:26;;;;;;;1.83;1.20;;;27.70;71.80;;;;;;5068192;28;20267;-69
2023/08/04 07:43:52;;;;;;;1.70;1.30;;;26.50;75.40;;;;;;5059933;28;20264;-68
2023/08/04 07:46:22;;;;;;;1.90;1.73;;;26.40;76.90;;;;;;5044755;28;20553;-67
2023/08/04 07:48:49;;;;;;;1.33;1.20;;;25.60;79.60;;;;;;5067136;28;20219;-68
2023/08/04 07:51:15;;;;;;;2.83;1.90;;;25.40;81.40;;;;;;5067379;28;20895;-68
2023/08/04 07:53:41;;;;;;;2.43;1.70;;;26.70;78.60;;;;;;5062362;28;20526;-67
2023/08/04 07:56:06;;;;;;;1.40;1.30;;;28.70;74.00;;;;;;5060973;28;20227;-67
2023/08/04 07:58:32;;;;;;;1.40;1.03;;;30.40;68.20;;;;;;5047378;28;20188;-67
2023/08/04 08:00:57;;;;;;;3.33;1.40;;;31.40;62.50;;;;;;5066466;28;20189;-68
2023/08/04 08:03:23;;;;;;;1.60;1.27;;;31.60;60.70;;;;;;5067258;28;20256;-68
2023/08/04 08:05:49;;;;;;;3.63;1.60;;;30.00;62.80;;;;;;5068157;28;20255;-68
2023/08/04 08:08:17;;;;;;;2.00;0.93;;;29.60;65.00;;;;;;5065475;28;20183;-67
2023/08/04 08:10:43;;;;;;;1.50;1.40;;;29.00;66.00;;;;;;5067386;28;20205;-67
2023/08/04 08:13:08;;;;;;;1.50;1.40;;;28.00;68.10;;;;;;5060804;28;20436;-67
2023/08/04 08:15:35;;;;;;;3.67;1.20;;;27.20;70.60;;;;;;5064720;28;20289;-68
2023/08/04 08:18:02;;;;;;;2.33;1.20;;;26.40;73.50;;;;;;5063053;28;21549;-67
2023/08/04 08:20:27;;;;;;;2.07;1.30;;;25.90;75.50;;;;;;5064554;28;20549;-67
2023/08/04 08:22:53;;;;;;;2.40;1.30;;;25.40;77.70;;;;;;5064011;28;21094;-68
2023/08/04 08:25:19;;;;;;;6.00;2.37;;;25.10;79.10;;;;;;5047468;28;20222;-68
2023/08/04 08:27:45;;;;;;;1.97;1.50;;;24.10;82.50;;;;;;5058780;28;20443;-71
2023/08/04 08:30:11;;;;;;;1.60;1.50;;;23.50;85.30;;;;;;5047444;28;20650;-71
2023/08/04 08:32:37;;;;;;;2.40;1.60;;;23.70;87.00;;;;;;5064237;28;20190;-71
2023/08/04 08:35:03;;;;;;;3.73;1.73;;;23.70;87.30;;;;;;5048353;28;20467;-70
2023/08/04 08:37:29;;;;;;;2.17;1.40;;;23.70;87.60;;;;;;5046303;28;20271;-71
2023/08/04 08:39:55;;;;;;;1.53;1.43;;;23.60;87.60;;;;;;5067011;28;20522;-71
2023/08/04 08:42:20;;;;;;;9.00;1.53;;;23.60;87.70;;;;;;5045971;28;20208;-71
2023/08/04 08:44:46;;;;;;;2.33;1.50;;;24.20;87.90;;;;;;5044188;28;20197;-71
2023/08/04 08:47:12;;;;;;;1.60;1.50;;;25.00;85.30;;;;;;5047578;28;20192;-70
2023/08/04 08:49:45;;;;;;;2.70;1.30;;;25.60;81.80;;;;;;5066300;28;20587;-70
2023/08/04 08:52:11;;;;;;;2.20;1.67;;;28.00;77.00;;;;;;5064047;28;20470;-71
2023/08/04 08:54:37;;;;;;;2.20;1.47;;;30.30;69.10;;;;;;5061176;28;20483;-67
2023/08/04 08:57:05;;;;;;;2.30;1.20;;;29.80;67.10;;;;;;5063656;28;20627;-70
2023/08/04 08:59:32;;;;;;;1.73;1.60;;;30.30;66.40;;;;;;5046289;28;20431;-70
2023/08/04 09:01:58;;;;;;;2.20;1.40;;;29.70;65.20;;;;;;5046837;28;20488;-68
2023/08/04 09:04:25;;;;;;;11.27;2.37;;;28.60;67.40;;;;;;5046763;28;20827;-68
2023/08/04 09:06:50;;;;;;;2.27;1.83;;;28.10;70.20;;;;;;5063930;28;20452;-67
2023/08/04 09:09:16;;;;;;;4.23;1.77;;;27.60;71.00;;;;;;5065602;28;20481;-67
2023/08/04 09:11:42;;;;;;;3.33;1.40;;;27.10;73.00;;;;;;5065773;28;20186;-66
2023/08/04 09:14:08;;;;;;;2.40;1.67;;;26.80;75.00;;;;;;5063678;28;20508;-67
2023/08/04 09:16:36;;;;;;;1.93;1.30;;;26.70;76.00;;;;;;5064101;28;20210;-66
2023/08/04 09:19:07;;;;;;;1.60;1.30;;;27.00;76.30;;;;;;5063934;28;20467;-68
2023/08/04 09:21:36;;;;;;;2.80;1.30;;;28.50;71.50;;;;;;5065440;28;20458;-72
2023/08/04 09:24:03;;;;;;;2.00;1.50;;;30.00;65.80;;;;;;5047501;28;21183;-71
2023/08/04 09:26:46;;;;;;;1.77;1.37;;;29.60;63.90;;;;;;5065263;28;20463;-71
2023/08/04 09:29:14;;;;;;;3.70;1.43;;;31.30;62.40;;;;;;5065618;28;20503;-71
2023/08/04 09:31:41;;;;;;;1.60;1.50;;;32.40;59.90;;;;;;5062777;28;20572;-71
2023/08/04 09:34:09;;;;;;;3.00;1.80;;;32.90;58.20;;;;;;5046123;28;20521;-70
2023/08/04 09:36:46;;;;;;;1.63;1.43;;;32.70;57.30;;;;;;5064345;28;20451;-68
2023/08/04 09:39:12;;;;;;;1.50;1.40;;;32.40;57.10;;;;;;5063734;28;20519;-67
2023/08/04 09:41:42;;;;;;;2.37;1.60;;;31.90;58.20;;;;;;5065583;28;20451;-67
2023/08/04 09:44:08;;;;;;;1.60;1.50;;;31.90;58.50;;;;;;5061869;28;20464;-67
2023/08/04 09:46:49;;;;;;;3.57;1.60;;;32.10;58.60;;;;;;5063369;28;20550;-66
2023/08/04 09:49:14;;;;;;;2.77;1.50;;;31.90;58.90;;;;;;5061875;28;20543;-67
2023/08/04 09:51:43;;;;;;;3.50;1.40;;;31.70;58.80;;;;;;5061803;28;20481;-67
2023/08/04 09:54:10;;;;;;;2.00;1.37;;;31.00;59.20;;;;;;5062977;28;20302;-67
2023/08/04 09:56:35;;;;;;;3.20;2.27;;;29.30;61.90;;;;;;5064218;28;20466;-67
2023/08/04 09:59:03;;;;;;;4.07;1.67;;;28.50;65.70;;;;;;5063814;28;20514;-67
2023/08/04 10:01:29;;;;;;;3.37;1.53;;;28.10;67.30;;;;;;5064167;28;20452;-66
2023/08/04 10:03:57;;;;;;;3.27;1.50;;;27.40;69.50;;;;;;5063082;28;20448;-68
2023/08/04 10:06:27;;;;;;;3.20;1.93;;;26.50;72.60;;;;;;5062819;28;20470;-67
2023/08/04 10:08:57;;;;;;;2.00;1.50;;;25.80;75.60;;;;;;5047978;28;20436;-67
2023/08/04 10:11:23;;;;;;;3.00;1.60;;;25.30;78.10;;;;;;5065287;28;20941;-67
2023/08/04 10:13:52;;;;;;;2.10;1.93;;;25.10;79.60;;;;;;5066327;28;20451;-67
2023/08/04 10:16:20;;;;;;;2.20;1.20;;;24.70;81.50;;;;;;5068088;28;20673;-68
2023/08/04 10:18:45;;;;;;;4.83;2.20;;;23.70;85.90;;;;;;5064854;28;20812;-68
2023/08/04 10:21:11;;;;;;;2.20;1.60;;;23.70;87.50;;;;;;5065678;28;20546;-68
2023/08/04 10:23:37;;;;;;;1.50;1.30;;;23.50;88.20;;;;;;5065198;28;20641;-68
2023/08/04 10:26:02;;;;;;;1.53;1.27;;;23.30;90.00;;;;;;5062216;28;20850;-67
2023/08/04 10:28:32;;;;;;;2.07;1.10;;;23.10;90.70;;;;;;5062552;28;20197;-68
2023/08/04 10:31:05;;;;;;;1.93;1.70;;;22.90;91.50;;;;;;5065210;28;20713;-67
2023/08/04 10:33:31;;;;;;;1.63;1.53;;;22.50;92.40;;;;;;5065498;28;20455;-67
2023/08/04 10:36:09;;;;;;;1.83;1.40;;;22.50;93.30;;;;;;5066474;28;20474;-68
2023/08/04 10:38:49;;;;;;;1.73;1.30;;;22.50;93.60;;;;;;5069682;28;20182;-67
2023/08/04 10:41:15;;;;;;;1.60;1.40;;;22.50;94.00;;;;;;5067717;28;20442;-68
2023/08/04 10:43:59;;;;;;;1.60;1.30;;;22.50;94.40;;;;;;5067970;28;20473;-68
2023/08/04 10:46:25;;;;;;;2.80;1.27;;;22.60;94.70;;;;;;5043491;28;20514;-69
2023/08/04 10:48:50;;;;;;;1.90;1.47;;;22.70;95.10;;;;;;5069364;28;20902;-69
2023/08/04 10:51:16;;;;;;;1.80;1.67;;;22.70;95.30;;;;;;5068533;28;20451;-70
2023/08/04 10:53:42;;;;;;;4.20;2.10;;;22.50;95.70;;;;;;5069366;28;20185;-69
2023/08/04 10:56:08;;;;;;;2.10;1.60;;;22.60;95.90;;;;;;5067839;28;20510;-69
2023/08/04 10:58:33;;;;;;;2.77;1.90;;;22.60;95.50;;;;;;5068264;28;20260;-69
2023/08/04 11:00:59;;;;;;;1.83;1.30;;;22.40;96.20;;;;;;5067206;28;20196;-69
2023/08/04 11:03:33;;;;;;;2.50;1.20;;;22.40;96.00;;;;;;5067816;28;20215;-70
2023/08/04 11:05:59;;;;;;;1.33;1.20;;;22.30;95.60;;;;;;5066881;28;20282;-69
2023/08/04 11:08:25;;;;;;;2.40;1.63;;;22.20;96.20;;;;;;5064461;28;20482;-70
2023/08/04 11:10:55;;;;;;;2.50;1.87;;;22.00;96.90;;;;;;5045194;28;20447;-69
2023/08/04 11:13:22;;;;;;;2.20;1.57;;;22.10;97.10;;;;;;5036616;28;20578;-70
2023/08/04 11:15:49;;;;;;;2.90;1.43;;;22.10;98.20;;;;;;5068937;28;20482;-70
2023/08/04 11:18:26;;;;;;;2.77;1.83;;;22.10;99.30;;;;;;5051611;28;20986;-72
2023/08/04 11:20:52;;;;;;;2.47;1.48;;;22.10;99.30;;;;;;5051055;28;20436;-70
2023/08/04 11:23:29;;;;;;;3.00;1.40;;;22.10;98.40;;;;;;5049984;28;20202;-72
2023/08/04 11:25:56;;;;;;;2.63;1.40;;;22.30;99.30;;;;;;5049582;28;20462;-72
2023/08/04 11:28:22;;;;;;;2.40;1.63;;;22.30;99.00;;;;;;5066128;28;20438;-71
2023/08/04 11:30:48;;;;;;;3.93;1.60;;;22.40;99.10;;;;;;5051577;28;20974;-71
2023/08/04 11:33:16;;;;;;;3.30;1.50;;;22.80;98.20;;;;;;5051296;28;20426;-72
2023/08/04 11:35:43;;;;;;;1.63;1.37;;;23.30;96.70;;;;;;5047753;28;20213;-72
2023/08/04 11:38:08;;;;;;;2.20;1.30;;;23.70;95.40;;;;;;5050078;28;20431;-71
2023/08/04 11:40:34;;;;;;;1.57;1.40;;;23.70;94.70;;;;;;5068557;28;20588;-72
2023/08/04 11:43:00;;;;;;;2.83;2.10;;;23.70;94.70;;;;;;5067126;28;20213;-71
2023/08/04 11:45:32;;;;;;;1.63;1.50;;;23.60;95.20;;;;;;5069089;28;20818;-71
2023/08/04 11:47:58;;;;;;;1.50;1.40;;;23.40;95.50;;;;;;5069100;28;20485;-71
2023/08/04 11:50:25;;;;;;;2.03;1.30;;;23.40;95.70;;;;;;5069432;28;20435;-71
2023/08/04 11:52:52;;;;;;;2.10;1.97;;;23.10;96.30;;;;;;5068114;28;20802;-71
2023/08/04 11:55:17;;;;;;;2.67;1.70;;;22.80;96.80;;;;;;5061020;28;20512;-71
2023/08/04 11:57:50;;;;;;;1.73;1.63;;;22.60;97.60;;;;;;5067017;28;20842;-71
2023/08/04 12:00:16;;;;;;;2.20;1.50;;;22.40;98.20;;;;;;5069538;28;20230;-70
2023/08/04 12:02:56;;;;;;;2.43;1.77;;;22.20;98.70;;;;;;5050817;28;20465;-70
2023/08/04 12:05:28;;;;;;;4.60;1.90;;;21.90;99.40;;;;;;5057501;28;20462;-70
2023/08/04 12:07:55;;;;;;;2.17;1.60;;;21.90;99.50;;;;;;5049557;28;20518;-70
2023/08/04 12:10:21;;;;;;;1.50;1.40;;;22.20;99.90;;;;;;5050446;28;20447;-70
2023/08/04 12:12:47;;;;;;;1.80;1.47;;;21.60;99.90;;;;;;5043757;28;20188;-70
2023/08/04 12:15:13;;;;;;;2.00;1.57;;;21.50;99.90;;;;;;5067604;28;20557;-70
2023/08/04 12:17:40;;;;;;;1.40;1.30;;;21.40;99.90;;;;;;5067607;28;20190;-70
2023/08/04 12:20:11;;;;;;;2.85;1.60;;;21.30;99.90;;;;;;5069861;28;20264;-70
2023/08/04 12:22:38;;;;;;;2.03;1.67;;;21.10;99.90;;;;;;5047429;28;20556;-70
2023/08/04 12:25:07;;;;;;;2.92;1.85;;;20.90;99.90;;;;;;5069369;28;20243;-70
2023/08/04 12:27:34;;;;;;;3.53;1.63;;;20.80;99.90;;;;;;5048295;28;20189;-70
2023/08/04 12:29:59;;;;;;;2.53;1.80;;;20.80;99.90;;;;;;5067465;28;20335;-70
2023/08/04 12:32:25;;;;;;;1.50;1.40;;;20.50;99.90;;;;;;5068312;28;20998;-70
2023/08/04 12:34:50;;;;;;;2.07;1.87;;;21.00;99.90;;;;;;5068458;28;20205;-69
2023/08/04 12:37:16;;;;;;;1.43;1.33;;;20.60;99.90;;;;;;5067492;28;20211;-70
2023/08/04 12:39:44;;;;;;;2.50;2.30;;;20.80;99.90;;;;;;5068012;28;20917;-70
2023/08/04 12:42:10;;;;;;;1.50;1.35;;;21.00;99.90;;;;;;5067949;28;20193;-70